Time;durP1;ratioP1;P1;durP2;ratioP2;P2;SDS_P1;SDS_P2;PMS_P1;PMS_P2;Temp;Humidity;BMP_temperature;BMP_pressure;BME280_temperature;BME280_humidity;BME280_pressure;Samples;Min_cycle;Max_cycle;Signal;HPM_P1;HPM_P2
2021/12/19 00:00:58;;;;;;;97.28;19.10;;;;;;;;;;5053948;28;20710;-64
2021/12/19 00:03:48;;;;;;;92.20;17.52;;;;;;;;;;5053931;28;20241;-65
2021/12/19 00:09:02;;;;;;;88.40;18.02;;;;;;;;;;5053491;28;20229;-65
2021/12/19 00:11:30;;;;;;;92.80;19.40;;;;;;;;;;5053610;28;20592;-63
2021/12/19 00:13:57;;;;;;;89.90;18.52;;;;;;;;;;5053761;28;20584;-63
2021/12/19 00:16:25;;;;;;;92.15;19.17;;;;;;;;;;5053687;28;20296;-65
2021/12/19 00:18:52;;;;;;;89.53;16.80;;;;;;;;;;5053434;28;20210;-65
2021/12/19 00:21:22;;;;;;;85.18;16.88;;;;;;;;;;5053416;28;20228;-64
2021/12/19 00:23:51;;;;;;;88.57;15.57;;;;;;;;;;5053429;28;20296;-64
2021/12/19 00:26:18;;;;;;;91.70;17.50;;;;;;;;;;5053138;28;20212;-64
2021/12/19 00:28:45;;;;;;;87.70;18.35;;;;;;;;;;5053055;28;20300;-64
2021/12/19 00:31:13;;;;;;;89.82;16.95;;;;;;;;;;5053324;28;20268;-65
2021/12/19 00:33:40;;;;;;;84.57;16.73;;;;;;;;;;5053427;28;20534;-64
2021/12/19 00:36:08;;;;;;;87.82;16.70;;;;;;;;;;5053373;28;20308;-64
2021/12/19 00:38:37;;;;;;;80.43;15.57;;;;;;;;;;5053540;28;20301;-64
2021/12/19 00:41:05;;;;;;;90.85;17.63;;;;;;;;;;5052969;28;20608;-65
2021/12/19 00:43:37;;;;;;;85.80;17.15;;;;;;;;;;5053215;28;20613;-64
2021/12/19 00:46:07;;;;;;;84.30;16.75;;;;;;;;;;5053032;28;20688;-64
2021/12/19 00:48:34;;;;;;;92.00;17.88;;;;;;;;;;5053066;28;20206;-65
2021/12/19 00:51:02;;;;;;;87.72;16.20;;;;;;;;;;5052750;28;20237;-64
2021/12/19 00:53:29;;;;;;;90.97;17.58;;;;;;;;;;5052745;28;20309;-65
2021/12/19 00:55:57;;;;;;;88.70;17.75;;;;;;;;;;5052844;28;20208;-65
2021/12/19 00:58:25;;;;;;;92.30;17.58;;;;;;;;;;5052671;28;20446;-65
2021/12/19 01:00:52;;;;;;;89.53;17.35;;;;;;;;;;5052698;28;20262;-65
2021/12/19 01:03:21;;;;;;;85.07;16.67;;;;;;;;;;5052626;28;20221;-64
2021/12/19 01:05:48;;;;;;;89.80;17.00;;;;;;;;;;5052537;28;20201;-64
2021/12/19 01:08:15;;;;;;;89.68;18.65;;;;;;;;;;5052290;28;20245;-65
2021/12/19 01:10:43;;;;;;;92.00;17.70;;;;;;;;;;5052385;28;20222;-64
2021/12/19 01:13:12;;;;;;;87.43;15.95;;;;;;;;;;5052785;28;20662;-64
2021/12/19 01:15:39;;;;;;;93.90;17.30;;;;;;;;;;5052571;28;20228;-66
2021/12/19 01:18:07;;;;;;;92.13;16.38;;;;;;;;;;5052035;28;20206;-65
2021/12/19 01:20:36;;;;;;;85.35;15.65;;;;;;;;;;5052309;28;20667;-65
2021/12/19 01:23:04;;;;;;;90.95;16.95;;;;;;;;;;5052654;28;20229;-65
2021/12/19 01:25:31;;;;;;;88.85;16.33;;;;;;;;;;5052347;28;20678;-65
2021/12/19 01:27:58;;;;;;;89.28;15.55;;;;;;;;;;5052107;28;20205;-65
2021/12/19 01:30:27;;;;;;;91.18;17.15;;;;;;;;;;5052109;28;20316;-66
2021/12/19 01:32:54;;;;;;;83.45;15.93;;;;;;;;;;5052010;28;20206;-66
2021/12/19 01:35:23;;;;;;;88.13;15.88;;;;;;;;;;5052294;28;20216;-65
2021/12/19 01:37:50;;;;;;;83.75;15.13;;;;;;;;;;5051942;28;20202;-65
2021/12/19 01:40:18;;;;;;;86.53;16.02;;;;;;;;;;5052053;28;20221;-65
2021/12/19 01:42:46;;;;;;;83.65;14.25;;;;;;;;;;5051878;28;20723;-65
2021/12/19 01:45:14;;;;;;;87.40;16.15;;;;;;;;;;5051979;28;20300;-65
2021/12/19 01:47:43;;;;;;;83.90;15.55;;;;;;;;;;5051584;28;20300;-65
2021/12/19 01:50:11;;;;;;;90.35;15.35;;;;;;;;;;5052069;28;20661;-65
2021/12/19 01:52:38;;;;;;;82.20;13.98;;;;;;;;;;5052102;28;20278;-64
2021/12/19 01:55:06;;;;;;;83.25;14.52;;;;;;;;;;5051841;28;20651;-65
2021/12/19 01:57:34;;;;;;;86.72;15.18;;;;;;;;;;5051971;28;20259;-65
2021/12/19 02:00:01;;;;;;;87.35;15.00;;;;;;;;;;5051548;28;20236;-65
2021/12/19 02:02:28;;;;;;;85.63;15.07;;;;;;;;;;5051754;28;20226;-65
2021/12/19 02:04:57;;;;;;;86.85;17.05;;;;;;;;;;5051778;28;20636;-64
2021/12/19 02:07:25;;;;;;;89.88;16.45;;;;;;;;;;5051487;28;20222;-64
2021/12/19 02:09:53;;;;;;;93.50;19.10;;;;;;;;;;5051443;28;20279;-65
2021/12/19 02:12:20;;;;;;;94.00;17.70;;;;;;;;;;5052110;28;20240;-64
2021/12/19 02:14:47;;;;;;;86.38;15.95;;;;;;;;;;5051241;28;20220;-65
2021/12/19 02:17:14;;;;;;;88.78;17.10;;;;;;;;;;5051568;28;20238;-65
2021/12/19 02:19:41;;;;;;;89.38;17.27;;;;;;;;;;5051596;28;20312;-65
2021/12/19 02:22:10;;;;;;;91.38;18.23;;;;;;;;;;5053131;28;20217;-64
2021/12/19 02:24:37;;;;;;;91.75;17.48;;;;;;;;;;5055721;28;20599;-64
2021/12/19 02:27:04;;;;;;;88.82;18.38;;;;;;;;;;5055611;28;20206;-65
2021/12/19 02:29:31;;;;;;;92.03;16.42;;;;;;;;;;5055753;28;20596;-66
2021/12/19 02:31:58;;;;;;;86.43;14.45;;;;;;;;;;5055536;28;20209;-65
2021/12/19 02:34:31;;;;;;;88.57;15.50;;;;;;;;;;5055446;28;20215;-65
2021/12/19 02:37:04;;;;;;;89.07;16.95;;;;;;;;;;5054509;28;20217;-65
2021/12/19 02:40:06;;;;;;;88.20;17.05;;;;;;;;;;5054315;28;20261;-66
2021/12/19 02:48:23;;;;;;;101.05;19.40;;;;;;;;;;5013133;28;20219;-65
2021/12/19 02:50:54;;;;;;;94.38;18.80;;;;;;;;;;5013074;28;20226;-65
2021/12/19 02:53:28;;;;;;;92.25;19.98;;;;;;;;;;5032708;28;20205;-65
2021/12/19 02:55:57;;;;;;;92.68;19.38;;;;;;;;;;5055166;28;20205;-65
2021/12/19 02:58:24;;;;;;;99.60;20.20;;;;;;;;;;5055050;28;20575;-66
2021/12/19 03:00:51;;;;;;;96.38;19.73;;;;;;;;;;5055348;28;20229;-64
2021/12/19 03:03:18;;;;;;;89.07;17.95;;;;;;;;;;5055016;28;20600;-65
2021/12/19 03:05:46;;;;;;;91.47;17.60;;;;;;;;;;5055429;28;20301;-65
2021/12/19 03:08:13;;;;;;;91.72;16.30;;;;;;;;;;5054413;28;20584;-65
2021/12/19 03:13:36;;;;;;;90.40;17.30;;;;;;;;;;5055009;28;20201;-65
2021/12/19 03:18:48;;;;;;;98.05;20.70;;;;;;;;;;5054989;28;20200;-66
2021/12/19 03:21:17;;;;;;;99.00;21.40;;;;;;;;;;5055013;28;20316;-65
2021/12/19 03:23:44;;;;;;;96.47;19.73;;;;;;;;;;5054884;28;20229;-65
2021/12/19 03:26:12;;;;;;;94.45;19.88;;;;;;;;;;5054990;28;20206;-66
2021/12/19 03:28:40;;;;;;;95.38;17.90;;;;;;;;;;5054567;28;20685;-66
2021/12/19 03:31:07;;;;;;;89.15;16.45;;;;;;;;;;5054552;28;20721;-65
2021/12/19 03:33:35;;;;;;;90.88;17.65;;;;;;;;;;5054434;28;20202;-64
2021/12/19 03:36:02;;;;;;;92.80;16.60;;;;;;;;;;5054181;28;20217;-65
2021/12/19 03:38:29;;;;;;;94.15;19.45;;;;;;;;;;5054148;28;20202;-65
2021/12/19 03:41:11;;;;;;;88.43;18.17;;;;;;;;;;5054265;28;20232;-65
2021/12/19 03:43:41;;;;;;;86.70;15.90;;;;;;;;;;5054396;28;20258;-68
2021/12/19 03:46:08;;;;;;;89.53;16.33;;;;;;;;;;5054325;28;20292;-65
2021/12/19 03:48:35;;;;;;;79.68;13.55;;;;;;;;;;5054135;28;20208;-65
2021/12/19 03:51:02;;;;;;;86.72;16.58;;;;;;;;;;5054160;28;20225;-66
2021/12/19 03:53:29;;;;;;;95.60;16.73;;;;;;;;;;5054098;28;20201;-64
2021/12/19 03:55:56;;;;;;;89.25;15.70;;;;;;;;;;5053834;28;20211;-65
2021/12/19 03:58:23;;;;;;;84.75;15.85;;;;;;;;;;5054076;28;20216;-66
2021/12/19 04:00:53;;;;;;;90.63;15.52;;;;;;;;;;5053957;28;20225;-65
2021/12/19 04:03:21;;;;;;;87.10;17.17;;;;;;;;;;5053897;28;20225;-65
2021/12/19 04:05:49;;;;;;;93.18;17.08;;;;;;;;;;5053824;28;20205;-65
2021/12/19 04:08:16;;;;;;;90.10;16.40;;;;;;;;;;5053367;28;20704;-65
2021/12/19 04:10:43;;;;;;;86.47;14.38;;;;;;;;;;5053837;28;20225;-65
2021/12/19 04:13:11;;;;;;;89.05;17.70;;;;;;;;;;5053912;28;20599;-65
2021/12/19 04:15:38;;;;;;;82.53;15.15;;;;;;;;;;5053716;28;20205;-66
2021/12/19 04:18:06;;;;;;;91.05;15.68;;;;;;;;;;5053404;28;20216;-65
2021/12/19 04:20:34;;;;;;;93.07;17.00;;;;;;;;;;5053549;28;20260;-65
2021/12/19 04:23:01;;;;;;;92.38;17.40;;;;;;;;;;5053368;28;20229;-65
2021/12/19 04:25:28;;;;;;;97.78;18.20;;;;;;;;;;5053745;28;20208;-65
2021/12/19 04:27:56;;;;;;;90.38;18.90;;;;;;;;;;5053307;28;20209;-65
2021/12/19 04:30:24;;;;;;;93.82;20.17;;;;;;;;;;5053367;28;20256;-64
2021/12/19 04:32:59;;;;;;;100.50;17.42;;;;;;;;;;5053403;28;20223;-65
2021/12/19 04:35:31;;;;;;;88.28;17.27;;;;;;;;;;5053037;28;20205;-66
2021/12/19 04:40:55;;;;;;;105.40;23.00;;;;;;;;;;5053277;28;20704;-65
2021/12/19 04:52:02;;;;;;;98.28;21.20;;;;;;;;;;5052970;28;20581;-66
2021/12/19 04:54:46;;;;;;;98.75;19.63;;;;;;;;;;5052940;28;20300;-64
2021/12/19 04:57:27;;;;;;;99.50;20.05;;;;;;;;;;5052789;28;20220;-65
2021/12/19 04:59:58;;;;;;;110.15;19.48;;;;;;;;;;5052842;28;20225;-65
2021/12/19 05:16:24;;;;;;;102.30;19.42;;;;;;;;;;5010985;28;20202;-65
2021/12/19 05:18:53;;;;;;;97.22;19.33;;;;;;;;;;5034132;28;20293;-65
2021/12/19 05:21:25;;;;;;;102.78;20.20;;;;;;;;;;5052163;28;20252;-65
2021/12/19 05:24:21;;;;;;;109.63;21.20;;;;;;;;;;5052736;28;20229;-65
2021/12/19 05:26:48;;;;;;;103.50;19.88;;;;;;;;;;5052260;28;20304;-66
2021/12/19 05:29:15;;;;;;;101.90;20.40;;;;;;;;;;5051936;28;20212;-65
2021/12/19 05:31:43;;;;;;;99.75;18.70;;;;;;;;;;5052141;28;20716;-65
2021/12/19 05:34:10;;;;;;;110.03;22.08;;;;;;;;;;5052352;28;20255;-66
2021/12/19 05:47:38;;;;;;;97.78;16.80;;;;;;;;;;5051714;28;20255;-65
2021/12/19 05:50:06;;;;;;;80.10;13.20;;;;;;;;;;5051886;28;20608;-66
2021/12/19 05:52:33;;;;;;;81.25;11.75;;;;;;;;;;5051866;28;20205;-66
2021/12/19 05:55:01;;;;;;;79.28;12.63;;;;;;;;;;5052058;28;20202;-65
2021/12/19 05:57:29;;;;;;;75.45;12.20;;;;;;;;;;5050880;28;20212;-66
2021/12/19 05:59:56;;;;;;;81.65;11.80;;;;;;;;;;5051981;28;20581;-65
2021/12/19 06:02:23;;;;;;;75.45;10.73;;;;;;;;;;5051820;28;20210;-65
2021/12/19 06:04:50;;;;;;;74.93;11.18;;;;;;;;;;5051597;28;20226;-64
2021/12/19 06:07:17;;;;;;;76.15;10.35;;;;;;;;;;5051368;28;20300;-66
2021/12/19 06:09:44;;;;;;;73.55;10.30;;;;;;;;;;5051769;28;20232;-65
2021/12/19 06:12:13;;;;;;;74.70;10.68;;;;;;;;;;5051902;28;20577;-65
2021/12/19 06:14:40;;;;;;;76.13;11.70;;;;;;;;;;5051745;28;20201;-65
2021/12/19 06:17:07;;;;;;;76.93;11.18;;;;;;;;;;5051469;28;20243;-66
2021/12/19 06:19:36;;;;;;;74.47;10.20;;;;;;;;;;5051218;28;20313;-65
2021/12/19 06:22:04;;;;;;;81.70;11.80;;;;;;;;;;5051815;28;20262;-65
2021/12/19 06:24:31;;;;;;;72.82;10.00;;;;;;;;;;5051687;28;20228;-65
2021/12/19 06:26:59;;;;;;;73.10;11.38;;;;;;;;;;5051660;28;20201;-65
2021/12/19 06:29:27;;;;;;;75.28;10.45;;;;;;;;;;5051135;28;20260;-65
2021/12/19 06:31:54;;;;;;;73.50;9.48;;;;;;;;;;5051569;28;20215;-65
2021/12/19 06:34:22;;;;;;;80.47;9.18;;;;;;;;;;5051486;28;20198;-67
2021/12/19 06:36:50;;;;;;;69.22;8.02;;;;;;;;;;5051404;28;20213;-65
2021/12/19 06:39:17;;;;;;;71.13;8.00;;;;;;;;;;5051260;28;20208;-65
2021/12/19 06:41:44;;;;;;;71.40;7.55;;;;;;;;;;5051436;28;20211;-65
2021/12/19 06:44:11;;;;;;;69.35;9.15;;;;;;;;;;5051334;28;20635;-65
2021/12/19 06:46:40;;;;;;;67.28;6.65;;;;;;;;;;5051143;28;20722;-65
2021/12/19 06:49:07;;;;;;;67.85;6.13;;;;;;;;;;5050947;28;20210;-65
2021/12/19 06:51:35;;;;;;;67.72;8.27;;;;;;;;;;5051472;28;20250;-65
2021/12/19 06:54:03;;;;;;;64.97;6.50;;;;;;;;;;5051257;28;20685;-65
2021/12/19 06:56:31;;;;;;;64.35;6.97;;;;;;;;;;5051271;28;20220;-66
2021/12/19 06:58:58;;;;;;;67.35;7.32;;;;;;;;;;5051206;28;20212;-64
2021/12/19 07:01:25;;;;;;;66.75;7.15;;;;;;;;;;5051039;28;20230;-65
2021/12/19 07:03:53;;;;;;;70.20;8.35;;;;;;;;;;5051273;28;20231;-65
2021/12/19 07:06:20;;;;;;;71.05;7.15;;;;;;;;;;5051181;28;20296;-67
2021/12/19 07:08:48;;;;;;;68.78;7.60;;;;;;;;;;5053464;28;20292;-65
2021/12/19 07:11:15;;;;;;;66.40;7.32;;;;;;;;;;5055048;28;20604;-65
2021/12/19 07:13:42;;;;;;;70.22;8.73;;;;;;;;;;5054825;28;20292;-65
2021/12/19 07:16:09;;;;;;;69.47;8.05;;;;;;;;;;5054759;28;20300;-65
2021/12/19 07:18:37;;;;;;;70.90;8.50;;;;;;;;;;5054674;28;20327;-65
2021/12/19 07:21:06;;;;;;;70.53;9.73;;;;;;;;;;5055020;28;20241;-65
2021/12/19 07:23:34;;;;;;;74.68;8.07;;;;;;;;;;5054567;28;20317;-65
2021/12/19 07:26:01;;;;;;;70.22;7.55;;;;;;;;;;5054521;28;20225;-65
2021/12/19 07:28:29;;;;;;;70.13;8.63;;;;;;;;;;5054415;28;20259;-65
2021/12/19 07:30:57;;;;;;;76.50;10.43;;;;;;;;;;5054600;28;20221;-65
2021/12/19 07:33:24;;;;;;;68.65;8.75;;;;;;;;;;5054423;28;20209;-65
2021/12/19 07:35:52;;;;;;;71.18;9.27;;;;;;;;;;5054251;28;20296;-65
2021/12/19 07:38:27;;;;;;;74.18;10.00;;;;;;;;;;5054376;28;20216;-64
2021/12/19 07:40:56;;;;;;;68.40;7.45;;;;;;;;;;5054142;28;20613;-66
2021/12/19 07:43:23;;;;;;;67.93;7.45;;;;;;;;;;5054159;28;20213;-65
2021/12/19 07:45:50;;;;;;;70.30;9.10;;;;;;;;;;5054304;28;20208;-65
2021/12/19 07:48:18;;;;;;;71.95;8.82;;;;;;;;;;5053925;28;20301;-66
2021/12/19 07:50:45;;;;;;;67.07;8.10;;;;;;;;;;5054234;28;20225;-66
2021/12/19 07:53:12;;;;;;;70.95;8.75;;;;;;;;;;5054108;28;20212;-65
2021/12/19 07:55:40;;;;;;;75.30;9.98;;;;;;;;;;5053843;28;20662;-65
2021/12/19 07:58:08;;;;;;;67.80;7.85;;;;;;;;;;5053962;28;20558;-65
2021/12/19 08:00:35;;;;;;;70.85;7.60;;;;;;;;;;5053983;28;20680;-65
2021/12/19 08:03:02;;;;;;;68.63;8.00;;;;;;;;;;5053695;28;20301;-67
2021/12/19 08:05:29;;;;;;;65.45;7.97;;;;;;;;;;5053688;28;20229;-66
2021/12/19 08:08:01;;;;;;;66.82;7.40;;;;;;;;;;5053525;28;20368;-66
2021/12/19 08:13:15;;;;;;;72.05;8.10;;;;;;;;;;5053798;28;20196;-66
2021/12/19 08:15:42;;;;;;;70.47;8.50;;;;;;;;;;5053657;28;20202;-65
2021/12/19 08:18:09;;;;;;;67.50;7.85;;;;;;;;;;5053346;28;20589;-65
2021/12/19 08:20:36;;;;;;;71.47;7.25;;;;;;;;;;5052454;28;20662;-65
2021/12/19 08:23:03;;;;;;;67.57;8.00;;;;;;;;;;5053713;28;20206;-66
2021/12/19 08:25:30;;;;;;;69.20;8.25;;;;;;;;;;5053631;28;20225;-65
2021/12/19 08:27:57;;;;;;;70.30;8.45;;;;;;;;;;5053324;28;20640;-66
2021/12/19 08:30:27;;;;;;;67.57;8.05;;;;;;;;;;5053362;28;20225;-67
2021/12/19 08:32:56;;;;;;;68.63;7.93;;;;;;;;;;5053244;28;20205;-65
2021/12/19 08:35:23;;;;;;;70.28;8.45;;;;;;;;;;5053112;28;20698;-66
2021/12/19 08:37:50;;;;;;;72.05;9.50;;;;;;;;;;5053113;28;20201;-66
2021/12/19 08:40:17;;;;;;;72.50;9.38;;;;;;;;;;5053254;28;20325;-65
2021/12/19 08:42:45;;;;;;;68.25;7.85;;;;;;;;;;5053094;28;20240;-65
2021/12/19 08:45:12;;;;;;;68.65;7.53;;;;;;;;;;5052943;28;20225;-65
2021/12/19 08:47:41;;;;;;;66.82;7.63;;;;;;;;;;5052691;28;20305;-66
2021/12/19 08:50:09;;;;;;;68.32;7.20;;;;;;;;;;5053105;28;20225;-66
2021/12/19 08:52:36;;;;;;;65.95;7.15;;;;;;;;;;5053064;28;20643;-65
2021/12/19 08:55:05;;;;;;;64.90;6.57;;;;;;;;;;5052869;28;20297;-66
2021/12/19 08:57:32;;;;;;;66.72;6.97;;;;;;;;;;5052594;28;20202;-65
2021/12/19 08:59:59;;;;;;;71.40;8.35;;;;;;;;;;5053171;28;20566;-65
2021/12/19 09:02:26;;;;;;;65.95;7.15;;;;;;;;;;5052649;28;20201;-65
2021/12/19 09:04:55;;;;;;;66.32;8.68;;;;;;;;;;5052855;28;20604;-65
2021/12/19 09:07:22;;;;;;;68.55;7.43;;;;;;;;;;5052491;28;20206;-66
2021/12/19 09:09:49;;;;;;;67.07;7.15;;;;;;;;;;5052532;28;20739;-65
2021/12/19 09:12:16;;;;;;;65.68;7.63;;;;;;;;;;5052769;28;20210;-65
2021/12/19 09:14:44;;;;;;;69.13;6.75;;;;;;;;;;5052338;28;20209;-65
2021/12/19 09:17:11;;;;;;;67.05;7.60;;;;;;;;;;5052547;28;20224;-65
2021/12/19 09:19:38;;;;;;;66.53;7.10;;;;;;;;;;5052297;28;20232;-65
2021/12/19 09:22:07;;;;;;;65.20;6.88;;;;;;;;;;5066153;28;20209;-65
2021/12/19 09:24:35;;;;;;;62.45;6.05;;;;;;;;;;5072070;28;20723;-66
2021/12/19 09:27:03;;;;;;;65.80;6.15;;;;;;;;;;5072047;28;20204;-65
2021/12/19 09:29:30;;;;;;;66.40;6.65;;;;;;;;;;5071868;28;20233;-66
2021/12/19 09:31:58;;;;;;;64.25;6.30;;;;;;;;;;5072000;28;20295;-65
2021/12/19 09:34:25;;;;;;;65.70;6.82;;;;;;;;;;5072284;28;20295;-65
2021/12/19 09:36:53;;;;;;;66.47;6.85;;;;;;;;;;5071891;28;20304;-65
2021/12/19 09:39:21;;;;;;;63.90;6.95;;;;;;;;;;5071775;28;20205;-65
2021/12/19 09:41:48;;;;;;;65.10;6.40;;;;;;;;;;5072045;28;20357;-65
2021/12/19 09:44:16;;;;;;;62.88;6.60;;;;;;;;;;5072179;28;20315;-65
2021/12/19 09:46:44;;;;;;;68.75;7.10;;;;;;;;;;5071822;28;20204;-66
2021/12/19 09:49:12;;;;;;;65.32;6.88;;;;;;;;;;5071622;28;20673;-65
2021/12/19 09:51:40;;;;;;;63.55;5.95;;;;;;;;;;5071742;28;20300;-65
2021/12/19 09:54:08;;;;;;;63.55;6.75;;;;;;;;;;5071448;28;20300;-66
2021/12/19 09:56:37;;;;;;;65.55;7.60;;;;;;;;;;5071458;28;20201;-65
2021/12/19 09:59:08;;;;;;;67.72;6.85;;;;;;;;;;5071478;28;20244;-65
2021/12/19 10:01:35;;;;;;;66.00;6.70;;;;;;;;;;5072017;28;20217;-66
2021/12/19 10:04:02;;;;;;;62.88;6.82;;;;;;;;;;5071808;28;20204;-64
2021/12/19 10:06:30;;;;;;;65.75;7.00;;;;;;;;;;5071880;28;20211;-65
2021/12/19 10:09:11;;;;;;;66.40;7.15;;;;;;;;;;5069503;28;20201;-65
2021/12/19 10:11:52;;;;;;;65.85;6.72;;;;;;;;;;5071874;28;20291;-65
2021/12/19 10:14:30;;;;;;;64.45;5.80;;;;;;;;;;5071840;28;20201;-66
2021/12/19 10:16:57;;;;;;;66.70;6.95;;;;;;;;;;5071703;28;20215;-65
2021/12/19 10:19:41;;;;;;;64.78;6.00;;;;;;;;;;5071000;28;20211;-65
2021/12/19 10:22:08;;;;;;;66.38;6.18;;;;;;;;;;5076137;28;20204;-65
2021/12/19 10:24:36;;;;;;;62.80;6.30;;;;;;;;;;5076414;28;20763;-64
2021/12/19 10:27:04;;;;;;;67.10;7.07;;;;;;;;;;5076710;28;20200;-65
2021/12/19 10:29:44;;;;;;;62.95;6.30;;;;;;;;;;5076047;28;20321;-64
2021/12/19 10:32:11;;;;;;;64.78;6.95;;;;;;;;;;5075159;28;20212;-65
2021/12/19 10:34:38;;;;;;;63.17;6.28;;;;;;;;;;5074117;28;20292;-66
2021/12/19 10:37:06;;;;;;;63.95;6.10;;;;;;;;;;5071742;28;20673;-64
2021/12/19 10:39:37;;;;;;;64.68;5.45;;;;;;;;;;5071448;28;20732;-65
2021/12/19 10:42:06;;;;;;;64.68;6.28;;;;;;;;;;5050756;28;20292;-65
2021/12/19 10:47:21;;;;;;;63.10;5.72;;;;;;;;;;5021127;28;20232;-65
2021/12/19 10:49:48;;;;;;;63.15;6.13;;;;;;;;;;5055011;28;20225;-65
2021/12/19 10:52:16;;;;;;;63.53;5.85;;;;;;;;;;5054890;28;20205;-65
2021/12/19 10:54:57;;;;;;;61.65;5.30;;;;;;;;;;5055044;28;20198;-64
2021/12/19 10:57:31;;;;;;;61.33;5.50;;;;;;;;;;5055053;28;20205;-64
2021/12/19 10:59:58;;;;;;;61.70;5.78;;;;;;;;;;5055244;28;20231;-64
2021/12/19 11:02:35;;;;;;;60.50;5.00;;;;;;;;;;5055089;28;20208;-64
2021/12/19 11:05:02;;;;;;;62.08;5.55;;;;;;;;;;5054532;28;20228;-64
2021/12/19 11:07:29;;;;;;;62.75;5.88;;;;;;;;;;5054505;28;20300;-64
2021/12/19 11:09:56;;;;;;;65.20;5.65;;;;;;;;;;5053793;28;20234;-64
2021/12/19 11:12:24;;;;;;;62.88;5.95;;;;;;;;;;5055438;28;20297;-64
2021/12/19 11:14:52;;;;;;;62.95;5.88;;;;;;;;;;5053918;28;20289;-64
2021/12/19 11:17:20;;;;;;;63.15;6.00;;;;;;;;;;5055045;28;20300;-65
2021/12/19 11:19:47;;;;;;;60.60;4.97;;;;;;;;;;5054767;28;20237;-65
2021/12/19 11:22:16;;;;;;;60.75;4.55;;;;;;;;;;5055370;28;20241;-64
2021/12/19 11:24:44;;;;;;;61.67;4.50;;;;;;;;;;5055165;28;20671;-65
2021/12/19 11:27:11;;;;;;;61.35;4.60;;;;;;;;;;5054739;28;20213;-64
2021/12/19 11:29:40;;;;;;;61.22;4.72;;;;;;;;;;5054899;28;20225;-64
2021/12/19 11:32:10;;;;;;;60.85;4.45;;;;;;;;;;5054576;28;20221;-64
2021/12/19 11:34:48;;;;;;;61.85;5.75;;;;;;;;;;5054832;28;20723;-64
2021/12/19 11:37:17;;;;;;;62.42;5.90;;;;;;;;;;5054339;28;20609;-64
2021/12/19 11:39:50;;;;;;;61.58;5.43;;;;;;;;;;5054978;28;20259;-64
2021/12/19 11:42:18;;;;;;;60.85;5.32;;;;;;;;;;5055685;28;20212;-64
2021/12/19 11:44:58;;;;;;;62.63;5.88;;;;;;;;;;5056242;28;20201;-64
2021/12/19 11:47:47;;;;;;;61.42;4.97;;;;;;;;;;5074863;28;20243;-64
2021/12/19 11:50:19;;;;;;;62.60;5.22;;;;;;;;;;5075304;28;20231;-63
2021/12/19 11:52:46;;;;;;;67.45;5.38;;;;;;;;;;5075077;28;20216;-64
2021/12/19 11:55:24;;;;;;;60.67;4.97;;;;;;;;;;5073148;28;20673;-64
2021/12/19 11:58:11;;;;;;;62.13;5.35;;;;;;;;;;5074854;28;20211;-64
2021/12/19 12:00:39;;;;;;;61.33;5.40;;;;;;;;;;5075366;28;20315;-65
2021/12/19 12:03:27;;;;;;;62.58;5.50;;;;;;;;;;5075656;28;20205;-64
2021/12/19 12:06:15;;;;;;;61.38;5.65;;;;;;;;;;5075732;28;20248;-64
2021/12/19 12:09:03;;;;;;;59.42;4.43;;;;;;;;;;5075260;28;20201;-64
2021/12/19 12:11:30;;;;;;;60.85;5.00;;;;;;;;;;5075706;28;20221;-64
2021/12/19 12:14:19;;;;;;;61.13;4.85;;;;;;;;;;5074840;28;20296;-64
2021/12/19 12:16:52;;;;;;;60.08;4.80;;;;;;;;;;5073566;28;20205;-64
2021/12/19 12:19:37;;;;;;;61.70;5.82;;;;;;;;;;5074169;28;20295;-63
2021/12/19 12:22:19;;;;;;;60.40;4.82;;;;;;;;;;5073845;28;20208;-64
2021/12/19 12:25:01;;;;;;;60.25;4.63;;;;;;;;;;5073596;28;20212;-64
2021/12/19 12:27:35;;;;;;;60.65;5.32;;;;;;;;;;5073557;28;20677;-64
2021/12/19 12:30:02;;;;;;;61.20;5.35;;;;;;;;;;5073872;28;20229;-64
2021/12/19 12:32:29;;;;;;;60.80;5.80;;;;;;;;;;5073639;28;20647;-65
2021/12/19 12:34:58;;;;;;;62.72;5.50;;;;;;;;;;5073779;28;20222;-64
2021/12/19 12:37:27;;;;;;;61.53;5.85;;;;;;;;;;5073367;28;20219;-63
2021/12/19 12:40:15;;;;;;;62.22;6.30;;;;;;;;;;5073718;28;20316;-63
2021/12/19 12:42:56;;;;;;;62.00;5.40;;;;;;;;;;5073924;28;20223;-63
2021/12/19 12:45:24;;;;;;;62.13;6.50;;;;;;;;;;5073617;28;20304;-65
2021/12/19 12:47:51;;;;;;;64.15;6.22;;;;;;;;;;5072988;28;20291;-64
2021/12/19 12:50:20;;;;;;;62.17;5.80;;;;;;;;;;5073562;28;20316;-64
2021/12/19 12:52:47;;;;;;;62.67;6.65;;;;;;;;;;5073258;28;20300;-64
2021/12/19 12:55:14;;;;;;;62.25;6.65;;;;;;;;;;5073144;28;20572;-64
2021/12/19 12:57:44;;;;;;;63.35;7.75;;;;;;;;;;5072823;28;20275;-65
2021/12/19 13:00:19;;;;;;;63.42;7.13;;;;;;;;;;5072404;28;20593;-65
2021/12/19 13:02:54;;;;;;;63.20;7.35;;;;;;;;;;5072885;28;20215;-66
2021/12/19 13:05:23;;;;;;;61.97;6.75;;;;;;;;;;5071860;28;20224;-64
2021/12/19 13:07:50;;;;;;;61.83;6.85;;;;;;;;;;5071878;28;20692;-64
2021/12/19 13:10:17;;;;;;;63.13;6.95;;;;;;;;;;5072751;28;20316;-64
2021/12/19 13:12:46;;;;;;;68.32;7.65;;;;;;;;;;5072681;28;20211;-65
2021/12/19 13:15:15;;;;;;;64.03;7.13;;;;;;;;;;5072568;28;20205;-65
2021/12/19 13:17:43;;;;;;;63.70;6.80;;;;;;;;;;5072379;28;20216;-64
2021/12/19 13:20:11;;;;;;;62.85;6.63;;;;;;;;;;5072609;28;20225;-65
2021/12/19 13:22:42;;;;;;;65.95;7.90;;;;;;;;;;5072523;28;20235;-64
2021/12/19 13:25:11;;;;;;;61.05;6.13;;;;;;;;;;5072316;28;20688;-64
2021/12/19 13:27:39;;;;;;;63.28;7.38;;;;;;;;;;5072287;28;20645;-64
2021/12/19 13:30:14;;;;;;;65.10;6.88;;;;;;;;;;5072334;28;20308;-65
2021/12/19 13:32:42;;;;;;;63.20;6.45;;;;;;;;;;5072298;28;20295;-64
2021/12/19 13:35:13;;;;;;;72.13;12.27;;;;;;;;;;5072250;28;20811;-64
2021/12/19 13:37:49;;;;;;;64.10;7.45;;;;;;;;;;5072049;28;20213;-64
2021/12/19 13:40:16;;;;;;;65.65;7.47;;;;;;;;;;5072246;28;20228;-64
2021/12/19 13:42:45;;;;;;;65.72;8.80;;;;;;;;;;5072342;28;20208;-64
2021/12/19 13:45:26;;;;;;;63.60;7.22;;;;;;;;;;5072046;28;20211;-63
2021/12/19 13:47:53;;;;;;;63.92;7.35;;;;;;;;;;5071739;28;20244;-64
2021/12/19 13:50:21;;;;;;;63.97;7.18;;;;;;;;;;5072483;28;20230;-65
2021/12/19 13:52:49;;;;;;;63.80;8.10;;;;;;;;;;5072404;28;20213;-64
2021/12/19 13:55:17;;;;;;;144.35;44.58;;;;;;;;;;5072154;28;20201;-64
2021/12/19 13:57:44;;;;;;;72.95;10.95;;;;;;;;;;5071740;28;20205;-65
2021/12/19 14:00:13;;;;;;;64.93;8.00;;;;;;;;;;5072306;28;20229;-64
2021/12/19 14:02:41;;;;;;;66.68;9.20;;;;;;;;;;5071814;28;20673;-64
2021/12/19 14:05:23;;;;;;;68.40;9.18;;;;;;;;;;5071830;28;20751;-64
2021/12/19 14:07:51;;;;;;;66.22;8.38;;;;;;;;;;5071392;28;20200;-65
2021/12/19 14:10:21;;;;;;;72.28;10.40;;;;;;;;;;5071880;28;20601;-65
2021/12/19 14:12:58;;;;;;;64.30;9.25;;;;;;;;;;5071868;28;20208;-64
2021/12/19 14:15:25;;;;;;;64.80;10.00;;;;;;;;;;5071935;28;20204;-64
2021/12/19 14:17:52;;;;;;;68.05;10.15;;;;;;;;;;5071045;28;20596;-65
2021/12/19 14:20:33;;;;;;;70.53;10.02;;;;;;;;;;5072221;28;20221;-64
2021/12/19 14:25:54;;;;;;;69.05;10.07;;;;;;;;;;5109735;27;20507;-64
2021/12/19 14:28:25;;;;;;;68.95;10.93;;;;;;;;;;5109605;28;20208;-64
2021/12/19 14:31:03;;;;;;;69.35;10.90;;;;;;;;;;5109666;28;20223;-64
2021/12/19 14:33:31;;;;;;;68.60;10.60;;;;;;;;;;5109441;28;20225;-63
2021/12/19 14:35:58;;;;;;;69.22;10.43;;;;;;;;;;5109695;28;20309;-63
2021/12/19 14:38:25;;;;;;;71.95;10.77;;;;;;;;;;5109329;28;20214;-63
2021/12/19 14:40:58;;;;;;;66.40;9.32;;;;;;;;;;5109331;28;20310;-64
2021/12/19 14:43:29;;;;;;;72.30;10.75;;;;;;;;;;5107377;28;20449;-64
2021/12/19 14:45:56;;;;;;;66.25;8.13;;;;;;;;;;5109071;28;20200;-63
2021/12/19 14:48:31;;;;;;;67.47;9.45;;;;;;;;;;5108990;28;20214;-66
2021/12/19 14:51:01;;;;;;;67.90;8.93;;;;;;;;;;5109229;28;20797;-64
2021/12/19 14:53:29;;;;;;;67.85;8.75;;;;;;;;;;5109167;28;20210;-64
2021/12/19 14:55:59;;;;;;;70.70;12.45;;;;;;;;;;5109018;28;20292;-64
2021/12/19 14:58:26;;;;;;;67.30;9.82;;;;;;;;;;5108618;28;20208;-64
2021/12/19 15:00:56;;;;;;;65.80;9.30;;;;;;;;;;5108876;28;20226;-64
2021/12/19 15:03:23;;;;;;;65.82;9.20;;;;;;;;;;5109100;28;20204;-63
2021/12/19 15:05:51;;;;;;;70.05;12.30;;;;;;;;;;5108797;28;20230;-64
2021/12/19 15:08:23;;;;;;;68.70;9.40;;;;;;;;;;5108508;28;20667;-64
2021/12/19 15:10:50;;;;;;;66.50;9.02;;;;;;;;;;5108657;28;20311;-64
2021/12/19 15:13:19;;;;;;;63.95;8.38;;;;;;;;;;5108938;28;20311;-65
2021/12/19 15:15:47;;;;;;;70.03;9.55;;;;;;;;;;5108771;28;20200;-63
2021/12/19 15:18:14;;;;;;;71.65;9.93;;;;;;;;;;5108575;28;20633;-64
2021/12/19 15:20:41;;;;;;;68.18;10.50;;;;;;;;;;5108403;28;20231;-64
2021/12/19 15:23:09;;;;;;;66.13;9.02;;;;;;;;;;5108995;28;20206;-65
2021/12/19 15:25:36;;;;;;;67.88;8.55;;;;;;;;;;5108075;28;20234;-64
2021/12/19 15:28:03;;;;;;;69.10;9.40;;;;;;;;;;5108368;28;20203;-64
2021/12/19 15:30:32;;;;;;;67.22;9.10;;;;;;;;;;5108469;28;20656;-63
2021/12/19 15:32:59;;;;;;;71.78;10.57;;;;;;;;;;5108499;28;20291;-63
2021/12/19 15:35:27;;;;;;;73.15;13.18;;;;;;;;;;5104686;28;20287;-64